Tielt, Belgium
Current Conditions -  °F | °C
As of 9:50 PM on Sunday 23 Nov 2014 (Local Time) from EBOS Reporting Station
Light Rain Light Rain  
Wind Chill: 50°   Ceiling: 600
Heat Index: 50°   Visibility: 2.8mi
Dew Point: 46°   Wind: 15mph
Humidity: 87%   Direction: 350°N
Pressure: 30.03"   Gusts: NA
Location:  51°N, 3.33°E
Report Text: EBOS 232050Z 35013KT 4500 -RADZ BKN006 BKN018 10/08 Q1017 NOSIG
Loading
Personal Weather Stations






























Interactive Weather Map New forecast layout! Learn more

10-Day Weather Forecast

Advertisements
Track Severe Weather on mobile